Time;durP1;ratioP1;P1;durP2;ratioP2;P2;SDS_P1;SDS_P2;PMS_P1;PMS_P2;Temp;Humidity;BMP_temperature;BMP_pressure;BME280_temperature;BME280_humidity;BME280_pressure;Samples;Min_cycle;Max_cycle;Signal;HPM_P1;HPM_P2
2021/09/28 00:01:35;;;;;;;3.27;2.97;;;16.50;99.90;;;;;;4993299;28;20710;-77
2021/09/28 00:04:02;;;;;;;3.00;2.70;;;16.40;99.90;;;;;;4993753;28;20274;-76
2021/09/28 00:06:30;;;;;;;3.77;2.57;;;16.40;99.90;;;;;;4975277;28;20215;-77
2021/09/28 00:08:57;;;;;;;2.63;2.43;;;16.40;99.90;;;;;;4993303;28;20192;-77
2021/09/28 00:11:23;;;;;;;2.20;2.10;;;16.40;99.90;;;;;;4973898;28;20205;-77
2021/09/28 00:13:50;;;;;;;3.63;2.40;;;16.30;99.90;;;;;;4985286;28;20636;-78
2021/09/28 00:16:17;;;;;;;2.60;2.40;;;16.20;99.90;;;;;;4993405;28;20193;-77
2021/09/28 00:18:44;;;;;;;2.50;2.30;;;16.20;99.90;;;;;;4992917;28;20286;-76
2021/09/28 00:21:11;;;;;;;8.07;7.60;;;16.10;99.90;;;;;;4993394;28;20247;-77
2021/09/28 00:23:39;;;;;;;8.10;7.70;;;16.00;99.90;;;;;;4972805;28;20258;-78
2021/09/28 00:26:06;;;;;;;9.10;8.50;;;16.00;99.90;;;;;;4990480;28;20250;-76
2021/09/28 00:28:32;;;;;;;8.67;8.07;;;15.90;99.90;;;;;;4974674;28;20294;-76
2021/09/28 00:30:59;;;;;;;8.40;7.70;;;15.90;99.90;;;;;;4975317;28;20658;-77
2021/09/28 00:33:28;;;;;;;8.80;8.30;;;15.80;99.90;;;;;;4993167;28;20215;-76
2021/09/28 00:35:55;;;;;;;8.47;7.83;;;15.70;99.90;;;;;;4987676;28;20228;-76
2021/09/28 00:38:22;;;;;;;8.40;7.87;;;15.60;99.90;;;;;;4992606;28;20267;-76
2021/09/28 00:40:50;;;;;;;8.03;7.43;;;15.60;99.90;;;;;;4989740;28;20243;-76
2021/09/28 00:43:17;;;;;;;8.30;7.70;;;15.50;99.90;;;;;;4973684;28;20227;-77
2021/09/28 00:45:44;;;;;;;7.80;7.40;;;15.50;99.90;;;;;;4991165;28;20205;-77
2021/09/28 00:48:11;;;;;;;8.03;7.57;;;15.40;99.90;;;;;;4993295;28;20190;-77
2021/09/28 00:50:38;;;;;;;7.97;7.50;;;15.40;99.90;;;;;;4974870;28;20207;-76
2021/09/28 00:53:05;;;;;;;8.10;7.40;;;15.30;99.90;;;;;;4993061;28;20209;-77
2021/09/28 00:55:32;;;;;;;8.57;7.87;;;15.30;99.90;;;;;;4989081;28;20203;-76
2021/09/28 00:58:02;;;;;;;7.90;7.43;;;15.20;99.90;;;;;;4992637;28;20210;-77
2021/09/28 01:00:30;;;;;;;8.00;7.40;;;15.10;99.90;;;;;;4970764;28;20235;-77
2021/09/28 01:02:58;;;;;;;8.10;7.60;;;15.10;99.90;;;;;;4970852;28;20446;-76
2021/09/28 01:05:25;;;;;;;7.90;7.40;;;15.00;99.90;;;;;;4996709;28;20201;-77
2021/09/28 01:07:52;;;;;;;8.23;7.53;;;15.00;99.90;;;;;;4970775;28;20261;-77
2021/09/28 01:10:19;;;;;;;7.97;7.47;;;14.90;99.90;;;;;;4988020;28;20202;-76
2021/09/28 01:12:45;;;;;;;8.27;7.70;;;14.90;99.90;;;;;;4996038;28;20269;-77
2021/09/28 01:15:14;;;;;;;8.17;7.67;;;14.80;99.90;;;;;;4992929;28;20216;-77
2021/09/28 01:17:42;;;;;;;8.27;7.77;;;14.80;99.90;;;;;;4977236;28;20584;-76
2021/09/28 01:20:09;;;;;;;8.03;7.33;;;14.70;99.90;;;;;;4978157;28;20201;-76
2021/09/28 01:22:37;;;;;;;7.70;7.30;;;14.70;99.90;;;;;;4974816;28;20299;-77
2021/09/28 01:25:05;;;;;;;8.33;7.80;;;14.70;99.90;;;;;;4996062;28;20240;-76
2021/09/28 01:27:35;;;;;;;8.17;7.70;;;14.70;99.90;;;;;;4972237;28;20677;-76
2021/09/28 01:30:03;;;;;;;8.17;7.67;;;14.70;99.90;;;;;;4991744;28;20724;-76
2021/09/28 01:32:29;;;;;;;7.83;7.43;;;14.60;99.90;;;;;;4992167;28;20198;-76
2021/09/28 01:34:56;;;;;;;8.03;7.60;;;14.60;99.90;;;;;;4975594;28;20247;-77
2021/09/28 01:37:23;;;;;;;8.30;7.80;;;14.60;99.90;;;;;;4978360;28;20582;-76
2021/09/28 01:39:51;;;;;;;8.70;8.20;;;14.60;99.90;;;;;;4993416;28;20652;-77
2021/09/28 01:42:18;;;;;;;8.03;7.63;;;14.60;99.90;;;;;;4994582;28;20235;-76
2021/09/28 01:44:45;;;;;;;8.77;8.27;;;14.60;99.90;;;;;;4995230;28;20225;-77
2021/09/28 01:47:12;;;;;;;8.40;7.90;;;14.60;99.90;;;;;;4991211;28;20194;-77
2021/09/28 01:49:39;;;;;;;8.60;8.10;;;14.50;99.90;;;;;;4991609;28;20204;-77
2021/09/28 01:52:06;;;;;;;8.07;7.60;;;14.50;99.90;;;;;;4992746;28;20198;-77
2021/09/28 01:54:33;;;;;;;8.40;7.90;;;14.50;99.90;;;;;;4976144;28;20227;-77
2021/09/28 01:57:01;;;;;;;7.83;7.43;;;14.50;99.90;;;;;;4995061;28;20206;-77
2021/09/28 01:59:28;;;;;;;7.90;7.43;;;14.40;99.90;;;;;;4977473;28;20626;-77
2021/09/28 02:01:54;;;;;;;7.90;7.50;;;14.40;99.90;;;;;;4970418;28;20268;-77
2021/09/28 02:04:21;;;;;;;8.30;7.80;;;14.40;99.90;;;;;;4990457;28;20217;-76
2021/09/28 02:06:49;;;;;;;8.23;7.80;;;14.40;99.90;;;;;;4973700;28;20216;-77
2021/09/28 02:09:15;;;;;;;8.23;7.83;;;14.40;99.90;;;;;;4970431;28;20221;-77
2021/09/28 02:11:42;;;;;;;8.40;7.90;;;14.40;99.90;;;;;;4985869;28;20195;-77
2021/09/28 02:14:10;;;;;;;8.23;7.73;;;14.30;99.90;;;;;;4986826;28;20209;-77
2021/09/28 02:16:38;;;;;;;8.90;8.30;;;14.30;99.90;;;;;;4975848;28;20208;-76
2021/09/28 02:19:05;;;;;;;8.50;8.00;;;14.30;99.90;;;;;;4978727;28;20691;-76
2021/09/28 02:21:32;;;;;;;8.33;7.80;;;14.30;99.90;;;;;;4971554;28;20209;-77
2021/09/28 02:23:59;;;;;;;8.53;7.93;;;14.30;99.90;;;;;;4964730;28;20225;-76
2021/09/28 02:26:26;;;;;;;8.10;7.70;;;14.40;99.90;;;;;;4975149;28;20696;-76
2021/09/28 02:28:52;;;;;;;8.40;7.90;;;14.30;99.90;;;;;;4965603;28;20568;-77
2021/09/28 02:31:21;;;;;;;9.00;8.40;;;14.30;99.90;;;;;;4969637;28;20202;-76
2021/09/28 02:33:48;;;;;;;9.40;8.90;;;14.30;99.90;;;;;;4991307;28;20216;-76
2021/09/28 02:36:15;;;;;;;8.50;8.00;;;14.30;99.90;;;;;;4992119;28;20194;-77
2021/09/28 02:38:42;;;;;;;8.70;8.20;;;14.30;99.90;;;;;;4976669;28;20585;-77
2021/09/28 02:41:08;;;;;;;8.40;8.00;;;14.30;99.90;;;;;;4994347;28;20200;-76
2021/09/28 02:43:35;;;;;;;8.87;8.30;;;14.20;99.90;;;;;;4994899;28;20241;-80
2021/09/28 02:46:02;;;;;;;9.07;8.53;;;14.20;99.90;;;;;;4993933;28;20203;-79
2021/09/28 02:48:31;;;;;;;9.80;9.30;;;14.10;99.90;;;;;;4998027;28;20200;-80
2021/09/28 02:50:58;;;;;;;9.20;8.70;;;14.10;99.90;;;;;;4983032;28;20204;-79
2021/09/28 02:53:25;;;;;;;8.50;8.00;;;14.10;99.90;;;;;;4984832;28;20239;-80
2021/09/28 02:55:51;;;;;;;9.70;9.10;;;14.00;99.90;;;;;;4996763;28;20667;-80
2021/09/28 02:58:18;;;;;;;8.80;8.30;;;14.00;99.90;;;;;;4977428;28;20209;-80
2021/09/28 03:00:45;;;;;;;9.60;9.10;;;14.00;99.90;;;;;;4990629;28;20208;-80
2021/09/28 03:03:12;;;;;;;9.00;8.50;;;14.10;99.90;;;;;;4986567;28;20221;-80
2021/09/28 03:05:40;;;;;;;9.80;9.30;;;14.00;99.90;;;;;;4975958;28;20232;-80
2021/09/28 03:08:07;;;;;;;9.10;8.60;;;14.00;99.90;;;;;;4973290;28;20252;-80
2021/09/28 03:10:34;;;;;;;9.43;8.93;;;14.00;99.90;;;;;;4968061;28;20202;-80
2021/09/28 03:13:01;;;;;;;9.33;8.83;;;14.00;99.90;;;;;;4975858;28;20788;-78
2021/09/28 03:15:28;;;;;;;9.67;9.17;;;14.00;99.90;;;;;;4988889;28;20201;-77
2021/09/28 03:17:55;;;;;;;9.30;8.80;;;14.00;99.90;;;;;;4985443;28;20260;-77
2021/09/28 03:20:22;;;;;;;9.00;8.50;;;14.00;99.90;;;;;;4987442;28;20197;-78
2021/09/28 03:22:50;;;;;;;9.50;9.00;;;14.00;99.90;;;;;;4963029;28;20220;-78
2021/09/28 03:25:17;;;;;;;9.93;9.40;;;13.90;99.90;;;;;;5002289;28;20223;-78
2021/09/28 03:27:43;;;;;;;10.37;9.77;;;13.90;99.90;;;;;;4996058;28;20683;-78
2021/09/28 03:30:12;;;;;;;9.70;9.10;;;13.90;99.90;;;;;;4978122;28;20212;-77
2021/09/28 03:32:39;;;;;;;9.43;8.93;;;13.90;99.90;;;;;;5005760;28;20624;-77
2021/09/28 03:35:09;;;;;;;9.60;9.00;;;14.00;99.90;;;;;;4982990;28;20714;-77
2021/09/28 03:37:36;;;;;;;10.10;9.50;;;13.90;99.90;;;;;;4988657;28;20734;-77
2021/09/28 03:40:05;;;;;;;9.40;8.90;;;13.90;99.90;;;;;;4975511;28;20204;-77
2021/09/28 03:42:32;;;;;;;11.00;10.40;;;13.90;99.90;;;;;;5001649;28;20201;-78
2021/09/28 03:44:59;;;;;;;10.33;9.73;;;13.90;99.90;;;;;;5000865;28;20216;-79
2021/09/28 03:47:26;;;;;;;11.03;10.43;;;13.90;99.90;;;;;;4990722;28;20208;-78
2021/09/28 03:49:52;;;;;;;11.80;11.10;;;13.90;99.90;;;;;;5003685;28;20227;-78
2021/09/28 03:52:19;;;;;;;11.00;10.30;;;13.90;99.90;;;;;;4975481;28;20669;-80
2021/09/28 03:54:46;;;;;;;11.20;10.50;;;13.90;99.90;;;;;;4974898;28;20217;-76
2021/09/28 03:57:15;;;;;;;11.83;11.23;;;13.90;99.90;;;;;;4969126;28;20197;-76
2021/09/28 03:59:41;;;;;;;9.07;8.53;;;13.80;99.90;;;;;;4993664;28;20216;-77
2021/09/28 04:02:08;;;;;;;10.50;9.87;;;13.80;99.90;;;;;;4964234;28;20212;-76
2021/09/28 04:04:35;;;;;;;9.50;9.00;;;13.80;99.90;;;;;;4988794;28;20278;-77
2021/09/28 04:07:02;;;;;;;10.80;10.17;;;13.70;99.90;;;;;;4988233;28;20196;-76
2021/09/28 04:09:29;;;;;;;10.27;9.67;;;13.70;99.90;;;;;;4987176;28;20611;-76
2021/09/28 04:11:55;;;;;;;11.70;11.07;;;13.70;99.90;;;;;;4975564;28;20254;-77
2021/09/28 04:14:24;;;;;;;2.50;2.40;;;13.60;99.90;;;;;;4992720;28;20371;-76
2021/09/28 04:16:51;;;;;;;3.63;3.40;;;13.60;99.90;;;;;;4984508;28;20223;-77
2021/09/28 04:19:17;;;;;;;8.17;7.67;;;13.50;99.90;;;;;;4991079;28;20226;-76
2021/09/28 04:21:44;;;;;;;8.87;8.37;;;13.40;99.90;;;;;;4974190;28;20203;-76
2021/09/28 04:24:12;;;;;;;2.40;2.30;;;13.50;99.90;;;;;;4987413;28;20228;-76
2021/09/28 04:26:39;;;;;;;6.97;6.57;;;13.40;99.90;;;;;;4968269;28;20303;-77
2021/09/28 04:29:07;;;;;;;5.33;5.03;;;13.40;99.90;;;;;;4983994;28;20225;-76
2021/09/28 04:31:35;;;;;;;7.80;7.27;;;13.30;99.90;;;;;;4991169;28;20553;-76
2021/09/28 04:34:02;;;;;;;3.60;3.33;;;13.20;99.90;;;;;;4975561;28;20223;-76
2021/09/28 04:36:29;;;;;;;2.80;2.60;;;13.10;99.90;;;;;;5002810;28;20624;-76
2021/09/28 04:38:56;;;;;;;4.43;4.13;;;13.10;99.90;;;;;;5008544;28;20295;-76
2021/09/28 04:41:23;;;;;;;2.97;2.80;;;13.00;99.90;;;;;;4991006;28;20204;-76
2021/09/28 04:43:50;;;;;;;4.63;4.23;;;13.00;99.90;;;;;;5004096;28;20228;-75
2021/09/28 04:46:16;;;;;;;4.27;4.00;;;12.90;99.90;;;;;;5003834;28;20204;-76
2021/09/28 04:48:45;;;;;;;5.10;4.80;;;12.80;99.90;;;;;;4997198;28;20266;-76
2021/09/28 04:51:12;;;;;;;10.40;9.80;;;12.80;99.90;;;;;;5003672;28;20596;-78
2021/09/28 04:53:39;;;;;;;10.40;9.60;;;12.70;99.90;;;;;;5006215;28;20215;-75
2021/09/28 04:56:06;;;;;;;10.50;9.90;;;12.60;99.90;;;;;;4988033;28;20259;-75
2021/09/28 04:58:33;;;;;;;10.30;9.60;;;12.70;99.90;;;;;;5004337;28;20551;-75
2021/09/28 05:00:59;;;;;;;10.17;9.57;;;12.70;99.90;;;;;;5002706;28;20191;-75
2021/09/28 05:03:26;;;;;;;10.37;9.77;;;12.80;99.90;;;;;;4974861;28;20281;-75
2021/09/28 05:05:55;;;;;;;9.93;9.33;;;12.80;99.90;;;;;;4985489;28;20274;-75
2021/09/28 05:08:21;;;;;;;10.07;9.47;;;12.90;99.90;;;;;;4988934;28;20200;-76
2021/09/28 05:10:48;;;;;;;10.63;9.93;;;12.90;99.90;;;;;;4973148;28;20221;-75
2021/09/28 05:13:15;;;;;;;10.70;10.10;;;13.00;99.90;;;;;;4974777;28;20309;-76
2021/09/28 05:15:42;;;;;;;3.40;3.20;;;13.00;99.90;;;;;;4975763;28;20203;-76
2021/09/28 05:18:09;;;;;;;5.10;4.77;;;13.10;99.90;;;;;;4994513;28;20742;-75
2021/09/28 05:20:36;;;;;;;5.73;5.37;;;13.10;99.90;;;;;;4975937;28;20219;-75
2021/09/28 05:23:05;;;;;;;8.47;7.87;;;13.20;99.90;;;;;;4976647;28;20204;-76
2021/09/28 05:25:32;;;;;;;3.33;3.13;;;13.30;99.90;;;;;;4991875;28;20205;-76
2021/09/28 05:27:58;;;;;;;8.30;7.80;;;13.30;99.90;;;;;;4990637;28;20197;-76
2021/09/28 05:30:26;;;;;;;7.30;6.80;;;13.30;99.90;;;;;;4991006;28;20235;-76
2021/09/28 05:32:53;;;;;;;6.20;5.80;;;13.40;99.90;;;;;;4991181;28;20243;-75
2021/09/28 05:35:20;;;;;;;3.67;3.47;;;13.40;99.90;;;;;;4976757;28;20196;-76
2021/09/28 05:37:47;;;;;;;2.80;2.60;;;13.40;99.90;;;;;;4974004;28;20390;-76
2021/09/28 05:40:15;;;;;;;3.10;2.70;;;13.40;99.90;;;;;;4970144;28;20255;-76
2021/09/28 05:42:42;;;;;;;2.63;2.50;;;13.40;99.90;;;;;;4972881;28;20687;-77
2021/09/28 05:45:10;;;;;;;2.77;2.60;;;13.40;99.90;;;;;;4971031;28;20244;-76
2021/09/28 05:47:36;;;;;;;2.90;2.70;;;13.40;99.90;;;;;;4968353;28;20200;-76
2021/09/28 05:50:04;;;;;;;3.73;3.23;;;13.30;99.90;;;;;;4993767;28;20196;-77
2021/09/28 05:52:31;;;;;;;4.07;3.07;;;13.30;99.90;;;;;;4972923;28;20711;-75
2021/09/28 05:55:00;;;;;;;3.37;2.80;;;13.30;99.90;;;;;;4991491;28;20677;-75
2021/09/28 05:57:28;;;;;;;2.90;2.70;;;13.30;99.90;;;;;;4975882;28;20205;-76
2021/09/28 05:59:55;;;;;;;3.60;3.20;;;13.40;99.90;;;;;;4992338;28;20192;-76
2021/09/28 06:02:22;;;;;;;3.07;2.87;;;13.40;99.90;;;;;;4991987;28;20204;-75
2021/09/28 06:04:49;;;;;;;3.20;3.00;;;13.40;99.90;;;;;;4991937;28;20213;-77
2021/09/28 06:07:17;;;;;;;3.13;2.87;;;13.40;99.90;;;;;;4972927;28;20210;-76
2021/09/28 06:09:44;;;;;;;2.77;2.57;;;13.40;99.90;;;;;;4970771;28;20209;-76
2021/09/28 06:12:12;;;;;;;3.17;2.90;;;13.40;99.90;;;;;;4989530;28;20202;-76
2021/09/28 06:14:41;;;;;;;3.50;3.03;;;13.40;99.90;;;;;;4973779;28;20599;-76
2021/09/28 06:17:09;;;;;;;3.40;2.73;;;13.50;99.90;;;;;;4982054;28;20236;-76
2021/09/28 06:19:36;;;;;;;3.50;3.03;;;13.60;99.90;;;;;;4991288;28;20252;-75
2021/09/28 06:22:04;;;;;;;3.10;2.90;;;13.60;99.90;;;;;;4992841;28;20255;-76
2021/09/28 06:24:32;;;;;;;3.30;3.00;;;13.70;99.90;;;;;;4992974;28;20761;-77
2021/09/28 06:26:59;;;;;;;3.43;2.80;;;13.70;99.90;;;;;;4980756;28;20463;-75
2021/09/28 06:29:26;;;;;;;2.87;2.67;;;13.70;99.90;;;;;;4986141;28;20204;-76
2021/09/28 06:31:54;;;;;;;4.40;3.27;;;13.70;99.90;;;;;;4990357;28;20718;-76
2021/09/28 06:34:21;;;;;;;2.90;2.70;;;13.70;99.90;;;;;;4991112;28;20209;-76
2021/09/28 06:36:48;;;;;;;3.53;3.23;;;13.80;99.90;;;;;;4974335;28;20198;-76
2021/09/28 06:39:15;;;;;;;4.43;3.43;;;13.90;99.90;;;;;;4992705;28;20679;-76
2021/09/28 06:41:42;;;;;;;3.03;2.73;;;14.00;99.90;;;;;;4992092;28;20560;-76
2021/09/28 06:44:09;;;;;;;3.73;3.53;;;14.00;99.90;;;;;;4974900;28;20263;-76
2021/09/28 06:46:36;;;;;;;3.10;2.90;;;14.10;99.90;;;;;;4992998;28;20288;-76
2021/09/28 06:49:04;;;;;;;4.27;2.97;;;14.30;99.90;;;;;;4988105;28;20676;-77
2021/09/28 06:51:31;;;;;;;2.90;2.70;;;14.40;99.90;;;;;;4963740;28;20630;-77
2021/09/28 06:54:01;;;;;;;4.17;3.10;;;14.50;99.90;;;;;;4974086;28;20210;-77
2021/09/28 06:56:29;;;;;;;2.87;2.67;;;14.50;99.90;;;;;;4975640;28;20232;-76
2021/09/28 06:58:57;;;;;;;3.30;2.80;;;14.40;99.90;;;;;;4975394;28;20198;-76
2021/09/28 07:01:26;;;;;;;3.10;2.90;;;14.40;99.90;;;;;;4970438;28;20209;-77
2021/09/28 07:03:54;;;;;;;3.40;3.07;;;14.50;99.90;;;;;;4967460;28;20252;-76
2021/09/28 07:06:23;;;;;;;3.83;3.53;;;14.60;99.90;;;;;;4974491;28;20316;-76
2021/09/28 07:08:51;;;;;;;5.40;5.00;;;14.70;99.90;;;;;;4979653;28;20198;-77
2021/09/28 07:11:19;;;;;;;9.70;8.90;;;14.80;99.90;;;;;;4971050;28;20209;-76
2021/09/28 07:13:46;;;;;;;8.83;8.30;;;14.70;99.90;;;;;;4989732;28;20214;-76
2021/09/28 07:16:14;;;;;;;8.20;7.63;;;14.70;99.90;;;;;;4992636;28;20189;-77
2021/09/28 07:18:41;;;;;;;6.03;5.03;;;14.60;99.90;;;;;;4992413;28;20549;-76
2021/09/28 07:21:08;;;;;;;5.43;5.03;;;14.70;99.90;;;;;;4971603;28;20210;-76
2021/09/28 07:23:37;;;;;;;8.70;7.90;;;14.70;99.90;;;;;;4979805;28;20228;-76
2021/09/28 07:26:04;;;;;;;10.67;9.70;;;14.70;99.90;;;;;;4992144;28;20213;-77
2021/09/28 07:28:31;;;;;;;10.53;9.60;;;14.70;99.90;;;;;;4992097;28;20656;-77
2021/09/28 07:30:58;;;;;;;3.60;3.30;;;14.70;99.90;;;;;;4974774;28;20240;-76
2021/09/28 07:33:25;;;;;;;3.40;3.10;;;14.80;99.90;;;;;;4991917;28;20217;-77
2021/09/28 07:35:53;;;;;;;3.30;3.00;;;14.90;99.90;;;;;;4988754;28;20629;-76
2021/09/28 07:38:21;;;;;;;7.50;6.90;;;15.40;99.90;;;;;;4974434;28;20703;-76
2021/09/28 07:40:51;;;;;;;8.13;7.47;;;16.00;99.90;;;;;;4990659;28;20233;-76
2021/09/28 07:43:19;;;;;;;6.23;5.73;;;16.50;99.90;;;;;;4990923;28;20218;-77
2021/09/28 07:45:47;;;;;;;4.80;3.47;;;17.20;99.90;;;;;;4974411;28;20284;-77
2021/09/28 07:48:13;;;;;;;9.27;7.10;;;17.80;99.90;;;;;;4974565;28;20753;-76
2021/09/28 07:50:41;;;;;;;7.70;7.00;;;17.90;99.90;;;;;;4992511;28;20620;-76
2021/09/28 07:53:08;;;;;;;6.23;3.60;;;18.10;99.90;;;;;;4990735;28;20561;-77
2021/09/28 07:55:35;;;;;;;11.77;10.70;;;18.00;99.90;;;;;;4974098;28;20265;-76
2021/09/28 07:58:04;;;;;;;7.60;7.10;;;18.30;99.90;;;;;;4970531;28;20208;-76
2021/09/28 08:00:31;;;;;;;10.40;9.73;;;18.70;99.90;;;;;;4989723;28;20251;-76
2021/09/28 08:02:57;;;;;;;7.10;6.37;;;18.30;99.90;;;;;;4974700;28;20201;-76
2021/09/28 08:05:24;;;;;;;5.10;3.07;;;18.80;99.90;;;;;;4993276;28;20222;-77
2021/09/28 08:07:51;;;;;;;10.13;9.33;;;19.10;99.90;;;;;;4988919;28;20254;-77
2021/09/28 08:10:18;;;;;;;11.07;10.00;;;19.20;99.90;;;;;;4994535;28;20268;-76
2021/09/28 08:12:46;;;;;;;10.00;9.20;;;18.60;99.90;;;;;;4995522;28;20207;-76
2021/09/28 08:15:14;;;;;;;10.67;9.97;;;17.90;99.90;;;;;;4978761;28;20241;-76
2021/09/28 08:17:41;;;;;;;6.07;3.70;;;17.30;99.90;;;;;;4995705;28;20201;-77
2021/09/28 08:20:09;;;;;;;10.57;9.57;;;16.70;99.90;;;;;;4978363;28;20198;-76
2021/09/28 08:22:38;;;;;;;11.80;11.10;;;16.40;99.90;;;;;;4992477;28;20611;-77
2021/09/28 08:25:09;;;;;;;6.47;5.97;;;16.10;99.90;;;;;;4994589;28;20686;-76
2021/09/28 08:30:21;;;;;;;5.30;3.20;;;16.40;99.90;;;;;;4995544;28;20193;-77
2021/09/28 08:32:48;;;;;;;6.67;3.13;;;16.80;99.90;;;;;;4973930;28;20205;-76
2021/09/28 08:35:15;;;;;;;5.37;3.07;;;16.70;99.90;;;;;;4985952;28;20189;-76
2021/09/28 08:37:42;;;;;;;3.97;3.10;;;16.50;99.90;;;;;;4992699;28;20232;-77
2021/09/28 08:40:12;;;;;;;6.30;3.00;;;16.50;99.90;;;;;;4995282;28;20195;-76
2021/09/28 08:42:40;;;;;;;5.93;3.03;;;16.80;99.90;;;;;;4994547;28;20252;-76
2021/09/28 08:45:07;;;;;;;5.77;3.10;;;16.90;99.90;;;;;;4995267;28;20221;-76
2021/09/28 08:47:39;;;;;;;4.13;3.03;;;16.60;99.90;;;;;;4975376;28;20203;-77
2021/09/28 08:50:08;;;;;;;3.03;2.70;;;16.30;99.90;;;;;;4986848;28;20616;-77
2021/09/28 08:52:40;;;;;;;6.13;2.80;;;16.40;99.90;;;;;;4994968;28;20203;-77
2021/09/28 08:55:07;;;;;;;7.07;2.77;;;16.40;99.90;;;;;;4995080;28;20219;-76
2021/09/28 08:57:34;;;;;;;3.13;2.83;;;16.40;99.90;;;;;;4967419;28;20200;-77
2021/09/28 09:00:01;;;;;;;2.90;2.70;;;16.30;99.90;;;;;;4987536;28;20190;-76
2021/09/28 09:02:43;;;;;;;4.37;2.77;;;16.20;99.90;;;;;;4986589;28;20235;-76
2021/09/28 09:05:14;;;;;;;4.60;3.07;;;16.00;99.90;;;;;;4975361;28;20220;-76
2021/09/28 09:07:41;;;;;;;7.77;3.50;;;15.90;99.90;;;;;;4957544;28;20793;-78
2021/09/28 09:10:09;;;;;;;4.10;3.00;;;15.90;99.90;;;;;;4975537;28;20247;-76
2021/09/28 09:12:39;;;;;;;5.07;4.20;;;15.90;99.90;;;;;;4975383;28;20201;-77
2021/09/28 09:15:21;;;;;;;9.47;8.67;;;15.90;99.90;;;;;;4958149;28;20318;-77
2021/09/28 09:17:51;;;;;;;3.60;2.90;;;15.90;99.90;;;;;;4974574;28;20208;-75
2021/09/28 09:20:23;;;;;;;4.50;3.00;;;15.80;99.90;;;;;;4975551;28;20196;-77
2021/09/28 09:22:50;;;;;;;10.53;9.83;;;15.70;99.90;;;;;;4965748;28;20732;-77
2021/09/28 09:25:20;;;;;;;7.57;6.30;;;15.70;99.90;;;;;;4975807;28;20278;-76
2021/09/28 09:27:47;;;;;;;6.90;4.30;;;15.60;99.90;;;;;;4994419;28;20255;-75
2021/09/28 09:30:19;;;;;;;6.67;3.00;;;15.40;99.90;;;;;;4991294;28;20196;-76
2021/09/28 09:32:49;;;;;;;4.00;3.30;;;15.70;99.90;;;;;;4991963;28;20284;-76
2021/09/28 09:35:26;;;;;;;4.70;3.10;;;16.10;99.90;;;;;;4969933;28;20207;-75
2021/09/28 09:38:05;;;;;;;6.23;3.60;;;16.50;99.90;;;;;;4986312;28;20216;-77
2021/09/28 09:40:34;;;;;;;6.27;2.73;;;17.00;99.90;;;;;;4990745;28;20208;-77
2021/09/28 09:43:01;;;;;;;4.10;3.10;;;17.50;99.90;;;;;;4968671;28;20207;-77
2021/09/28 09:45:28;;;;;;;8.07;7.33;;;17.70;99.90;;;;;;4993684;28;20216;-76
2021/09/28 09:47:57;;;;;;;3.50;3.20;;;18.00;99.90;;;;;;4992325;28;20198;-76
2021/09/28 09:50:26;;;;;;;2.80;2.30;;;18.40;99.90;;;;;;4992249;28;20672;-76
2021/09/28 09:53:07;;;;;;;5.60;3.23;;;18.40;99.90;;;;;;4986598;28;20228;-76
2021/09/28 09:55:38;;;;;;;5.43;5.03;;;18.20;99.90;;;;;;4976852;28;20204;-77
2021/09/28 09:58:06;;;;;;;8.80;8.20;;;18.00;99.90;;;;;;4990814;28;20197;-76
2021/09/28 10:00:33;;;;;;;9.30;8.60;;;18.00;99.90;;;;;;4992186;28;20627;-76
2021/09/28 10:03:08;;;;;;;9.30;8.60;;;18.10;99.90;;;;;;4994301;28;20240;-76
2021/09/28 10:05:36;;;;;;;9.07;8.43;;;17.90;99.90;;;;;;4975260;28;20228;-77
2021/09/28 10:08:07;;;;;;;4.57;3.63;;;17.80;99.90;;;;;;4993465;28;20197;-76
2021/09/28 10:10:35;;;;;;;3.50;2.93;;;18.00;99.90;;;;;;4992529;28;20197;-76
2021/09/28 10:13:03;;;;;;;5.83;2.60;;;18.20;99.90;;;;;;4973597;28;20239;-76
2021/09/28 10:15:30;;;;;;;5.30;3.17;;;18.10;99.90;;;;;;4990831;28;20294;-77
2021/09/28 10:17:57;;;;;;;4.23;3.00;;;18.00;99.90;;;;;;4973387;28;20198;-76
2021/09/28 10:20:41;;;;;;;3.70;2.97;;;18.20;99.90;;;;;;4974582;28;20261;-77
2021/09/28 10:23:17;;;;;;;9.67;9.00;;;18.40;99.90;;;;;;4971330;28;20306;-76
2021/09/28 10:25:45;;;;;;;9.50;8.80;;;18.30;99.90;;;;;;4975328;28;20222;-77
2021/09/28 10:28:32;;;;;;;9.67;8.90;;;18.40;99.90;;;;;;4985895;28;20594;-76
2021/09/28 10:30:59;;;;;;;10.17;9.30;;;18.50;99.90;;;;;;4968904;28;20311;-77
2021/09/28 10:33:32;;;;;;;10.00;9.30;;;18.30;99.90;;;;;;4992590;28;20256;-77
2021/09/28 10:36:02;;;;;;;3.70;3.00;;;18.20;99.90;;;;;;4975026;28;20205;-76
2021/09/28 10:39:01;;;;;;;5.40;3.30;;;18.10;99.90;;;;;;4993229;28;20553;-76
2021/09/28 10:41:44;;;;;;;3.40;2.80;;;18.10;99.90;;;;;;4975797;28;20199;-77
2021/09/28 10:44:48;;;;;;;5.27;2.87;;;18.10;99.90;;;;;;4973900;28;20232;-76
2021/09/28 10:47:46;;;;;;;4.00;2.67;;;18.20;99.90;;;;;;4975815;28;20642;-76
2021/09/28 10:50:29;;;;;;;7.60;7.00;;;18.00;99.90;;;;;;4975946;28;20575;-76
2021/09/28 10:52:59;;;;;;;6.27;3.37;;;18.00;99.90;;;;;;4993156;28;20214;-76
2021/09/28 10:55:28;;;;;;;6.00;3.10;;;17.90;99.90;;;;;;4992711;28;20206;-76
2021/09/28 10:58:03;;;;;;;5.03;3.07;;;17.60;99.90;;;;;;4956159;28;20633;-76
2021/09/28 11:00:52;;;;;;;4.77;4.20;;;17.70;99.90;;;;;;4966203;28;20628;-76
2021/09/28 11:03:43;;;;;;;6.70;2.60;;;17.90;99.90;;;;;;4992486;28;20220;-74
2021/09/28 11:06:11;;;;;;;3.90;2.83;;;18.40;99.90;;;;;;4992470;28;20210;-76
2021/09/28 11:08:41;;;;;;;3.87;2.60;;;18.50;99.90;;;;;;4975303;28;20681;-76
2021/09/28 11:11:09;;;;;;;5.33;3.47;;;18.20;99.90;;;;;;4993230;28;20195;-76
2021/09/28 11:13:38;;;;;;;5.87;3.03;;;17.70;99.90;;;;;;4974853;28;20287;-76
2021/09/28 11:16:07;;;;;;;3.27;2.77;;;17.50;99.90;;;;;;4975317;28;20194;-76
2021/09/28 11:18:37;;;;;;;6.70;5.40;;;17.40;99.90;;;;;;4974946;28;20200;-76
2021/09/28 11:21:08;;;;;;;9.50;8.90;;;17.70;99.90;;;;;;4975009;28;20583;-76
2021/09/28 11:23:35;;;;;;;3.33;3.03;;;17.90;99.90;;;;;;4994690;28;20228;-76
2021/09/28 11:26:04;;;;;;;3.90;3.60;;;18.00;99.90;;;;;;4974862;28;20228;-76
2021/09/28 11:28:31;;;;;;;5.63;3.20;;;18.10;99.90;;;;;;4991752;28;20209;-76
2021/09/28 11:31:00;;;;;;;3.70;3.40;;;17.90;99.90;;;;;;4970801;28;20209;-76
2021/09/28 11:33:29;;;;;;;9.13;8.53;;;17.90;99.90;;;;;;4986604;28;20226;-76
2021/09/28 11:35:57;;;;;;;9.90;9.27;;;17.70;99.90;;;;;;4966891;28;20195;-76
2021/09/28 11:38:27;;;;;;;10.67;3.73;;;17.70;99.90;;;;;;4991951;28;20744;-76
2021/09/28 11:41:00;;;;;;;8.93;8.23;;;17.60;99.90;;;;;;4985515;28;20728;-76
2021/09/28 11:43:29;;;;;;;8.40;7.60;;;17.70;99.90;;;;;;4988969;28;20218;-76
2021/09/28 11:46:00;;;;;;;10.80;9.93;;;17.70;99.90;;;;;;4972846;28;20697;-76
2021/09/28 11:48:28;;;;;;;11.30;10.50;;;17.70;99.90;;;;;;4991234;28;20676;-76
2021/09/28 11:50:55;;;;;;;9.93;9.20;;;17.70;99.90;;;;;;4991983;28;20661;-75
2021/09/28 11:53:22;;;;;;;9.83;9.13;;;17.80;99.90;;;;;;4988536;28;20229;-76
2021/09/28 11:55:49;;;;;;;10.50;9.67;;;17.80;99.90;;;;;;4971481;28;20199;-76
2021/09/28 11:58:16;;;;;;;8.93;8.30;;;17.90;99.90;;;;;;4974487;28;20244;-76
2021/09/28 12:00:44;;;;;;;4.10;3.10;;;18.00;99.90;;;;;;4991087;28;20800;-77
2021/09/28 12:03:12;;;;;;;4.00;3.00;;;18.00;99.90;;;;;;4989866;28;20280;-76
2021/09/28 12:05:53;;;;;;;8.57;7.87;;;18.10;99.90;;;;;;4972815;28;20714;-76
2021/09/28 12:08:23;;;;;;;9.00;8.20;;;18.10;99.90;;;;;;4977232;28;20213;-77
2021/09/28 12:10:52;;;;;;;9.30;8.60;;;18.00;99.90;;;;;;4966385;28;20204;-76
2021/09/28 12:13:24;;;;;;;4.93;2.83;;;17.90;99.90;;;;;;4991558;28;20220;-76
2021/09/28 12:16:04;;;;;;;5.17;2.97;;;17.90;99.90;;;;;;4980458;28;20194;-77
2021/09/28 12:18:31;;;;;;;4.73;3.30;;;17.90;99.90;;;;;;4990764;28;20738;-76
2021/09/28 12:21:15;;;;;;;5.90;5.00;;;17.80;99.90;;;;;;4985779;28;20198;-76
2021/09/28 12:23:41;;;;;;;4.60;4.20;;;17.70;99.90;;;;;;4987816;28;20232;-77
2021/09/28 12:26:22;;;;;;;5.33;4.83;;;17.70;99.90;;;;;;4990833;28;20244;-77
2021/09/28 12:28:49;;;;;;;6.87;5.27;;;17.80;99.90;;;;;;4991273;28;20200;-76
2021/09/28 12:31:18;;;;;;;4.23;3.00;;;17.80;99.90;;;;;;4991723;28;20258;-77
2021/09/28 12:33:45;;;;;;;4.93;2.77;;;17.60;99.90;;;;;;4987331;28;20309;-77
2021/09/28 12:36:11;;;;;;;2.90;2.70;;;17.60;99.90;;;;;;4970279;28;20194;-76
2021/09/28 12:38:38;;;;;;;4.80;2.77;;;17.80;99.90;;;;;;4972015;28;20687;-77
2021/09/28 12:41:07;;;;;;;3.70;2.50;;;17.80;99.90;;;;;;4991114;28;20256;-76
2021/09/28 12:43:34;;;;;;;4.43;2.60;;;17.90;99.90;;;;;;4989812;28;20301;-77
2021/09/28 12:46:04;;;;;;;5.03;2.83;;;18.00;99.90;;;;;;4991261;28;20296;-77
2021/09/28 12:48:38;;;;;;;5.33;2.90;;;18.00;99.90;;;;;;4957128;28;20229;-76
2021/09/28 12:51:06;;;;;;;4.57;2.80;;;18.00;99.90;;;;;;4972010;28;20700;-76
2021/09/28 12:53:34;;;;;;;3.00;2.60;;;18.10;99.90;;;;;;4990156;28;20226;-76
2021/09/28 12:56:03;;;;;;;3.03;2.67;;;18.00;99.90;;;;;;4991227;28;20252;-76